Time;durP1;ratioP1;P1;durP2;ratioP2;P2;SDS_P1;SDS_P2;PMS_P1;PMS_P2;Temp;Humidity;BMP_temperature;BMP_pressure;BME280_temperature;BME280_humidity;BME280_pressure;Samples;Min_cycle;Max_cycle;Signal;HPM_P1;HPM_P2
2023/08/29 00:01:47;;;;;;;3.57;3.27;;;20.60;99.90;;;;;;4976597;28;20965;-83
2023/08/29 00:04:15;;;;;;;3.40;3.10;;;20.50;99.90;;;;;;4977412;28;20479;-81
2023/08/29 00:06:43;;;;;;;3.50;3.20;;;20.50;99.90;;;;;;4974586;28;20478;-82
2023/08/29 00:09:13;;;;;;;2.67;2.47;;;20.50;99.90;;;;;;4976471;28;20999;-84
2023/08/29 00:11:41;;;;;;;2.93;2.63;;;20.50;99.90;;;;;;4977159;28;20454;-83
2023/08/29 00:14:08;;;;;;;3.17;2.93;;;20.40;99.90;;;;;;4976645;28;20474;-82
2023/08/29 00:16:35;;;;;;;3.07;2.80;;;20.40;99.90;;;;;;4977471;28;20467;-84
2023/08/29 00:19:03;;;;;;;3.70;3.40;;;20.40;99.90;;;;;;4978848;28;20972;-82
2023/08/29 00:21:30;;;;;;;3.80;3.37;;;20.40;99.90;;;;;;4977778;28;20545;-85
2023/08/29 00:23:57;;;;;;;3.83;3.53;;;20.30;99.90;;;;;;4978198;28;20475;-83
2023/08/29 00:26:24;;;;;;;4.23;3.83;;;20.30;99.90;;;;;;4974685;28;20502;-81
2023/08/29 00:28:53;;;;;;;4.27;3.87;;;20.30;99.90;;;;;;4958788;28;20470;-82
2023/08/29 00:31:20;;;;;;;4.47;4.07;;;20.20;99.90;;;;;;4974860;28;20501;-82
2023/08/29 00:33:47;;;;;;;4.50;4.10;;;20.20;99.90;;;;;;4974961;28;20529;-82
2023/08/29 00:36:16;;;;;;;4.67;4.17;;;20.10;99.90;;;;;;4976922;28;20486;-81
2023/08/29 00:38:43;;;;;;;5.00;4.10;;;20.10;99.90;;;;;;4981147;28;20451;-83
2023/08/29 00:41:11;;;;;;;4.37;4.00;;;20.10;99.90;;;;;;4978402;28;20539;-84
2023/08/29 00:43:38;;;;;;;3.43;3.17;;;20.00;99.90;;;;;;4978848;28;20463;-84
2023/08/29 00:46:06;;;;;;;5.53;3.90;;;20.00;99.90;;;;;;4979919;28;20984;-82
2023/08/29 00:48:33;;;;;;;5.00;3.90;;;20.00;99.90;;;;;;4969225;28;20482;-81
2023/08/29 00:51:00;;;;;;;3.70;3.40;;;19.90;99.90;;;;;;4980493;28;20474;-82
2023/08/29 00:53:30;;;;;;;4.73;4.40;;;19.90;99.90;;;;;;4979758;28;20517;-84
2023/08/29 00:55:57;;;;;;;3.70;3.40;;;19.90;99.90;;;;;;4981090;28;20475;-82
2023/08/29 00:58:24;;;;;;;4.83;3.57;;;19.90;99.90;;;;;;4980618;28;21048;-84
2023/08/29 01:00:51;;;;;;;4.40;3.87;;;19.90;99.90;;;;;;4979957;28;20459;-83
2023/08/29 01:03:18;;;;;;;4.20;3.80;;;19.90;99.90;;;;;;4980036;28;20497;-84
2023/08/29 01:05:56;;;;;;;4.67;3.87;;;19.80;99.90;;;;;;4980077;28;20466;-83
2023/08/29 01:08:23;;;;;;;3.97;3.67;;;19.80;99.90;;;;;;4980220;28;20533;-83
2023/08/29 01:11:00;;;;;;;4.40;4.00;;;19.80;99.90;;;;;;4981170;28;20467;-85
2023/08/29 01:13:35;;;;;;;3.90;3.43;;;19.80;99.90;;;;;;4977692;28;20562;-82
2023/08/29 01:16:06;;;;;;;5.10;4.17;;;19.80;99.90;;;;;;4977819;28;20478;-81
2023/08/29 01:18:35;;;;;;;4.67;4.27;;;19.80;99.90;;;;;;4976865;28;20485;-82
2023/08/29 01:21:13;;;;;;;4.97;3.60;;;19.70;99.90;;;;;;4977664;28;20867;-84
2023/08/29 01:23:48;;;;;;;4.47;4.10;;;19.70;99.90;;;;;;4976908;28;20488;-81
2023/08/29 01:26:18;;;;;;;4.33;3.93;;;19.70;99.90;;;;;;4977634;28;20477;-84
2023/08/29 01:28:46;;;;;;;8.30;4.20;;;19.60;99.90;;;;;;4968466;28;20806;-82
2023/08/29 01:31:14;;;;;;;4.63;3.90;;;19.60;99.90;;;;;;4977298;28;20487;-83
2023/08/29 01:33:42;;;;;;;4.00;3.60;;;19.60;99.90;;;;;;4977313;28;20467;-84
2023/08/29 01:36:09;;;;;;;4.07;3.73;;;19.50;99.90;;;;;;4977151;28;20954;-84
2023/08/29 01:38:36;;;;;;;5.67;4.70;;;19.50;99.90;;;;;;4976259;28;20471;-84
2023/08/29 01:41:03;;;;;;;4.80;4.17;;;19.50;99.90;;;;;;4977255;28;20466;-85
2023/08/29 01:43:31;;;;;;;4.70;4.17;;;19.50;99.90;;;;;;4976391;28;20483;-82
2023/08/29 01:45:58;;;;;;;4.67;4.27;;;19.40;99.90;;;;;;4976622;28;20542;-84
2023/08/29 01:48:25;;;;;;;5.47;4.80;;;19.40;99.90;;;;;;4975938;28;20481;-82
2023/08/29 01:50:52;;;;;;;4.27;3.97;;;19.40;99.90;;;;;;4976746;28;20806;-82
2023/08/29 01:53:19;;;;;;;3.40;3.10;;;19.40;99.90;;;;;;4976853;28;20596;-82
2023/08/29 01:55:50;;;;;;;4.23;3.93;;;19.40;99.90;;;;;;4976418;28;20479;-84
2023/08/29 01:58:18;;;;;;;5.57;4.23;;;19.30;99.90;;;;;;4975780;28;20466;-83
2023/08/29 02:00:47;;;;;;;6.80;4.00;;;19.20;99.90;;;;;;4976150;28;20471;-84
2023/08/29 02:03:13;;;;;;;5.13;3.80;;;19.20;99.90;;;;;;4976033;28;20860;-82
2023/08/29 02:05:41;;;;;;;4.63;3.87;;;19.20;99.90;;;;;;4976099;28;20791;-83
2023/08/29 02:08:08;;;;;;;4.80;3.40;;;19.20;99.90;;;;;;4976647;28;20830;-82
2023/08/29 02:10:35;;;;;;;3.77;3.37;;;19.20;99.90;;;;;;4976213;28;20475;-84
2023/08/29 02:13:02;;;;;;;3.47;3.27;;;19.20;99.90;;;;;;4976691;28;20979;-81
2023/08/29 02:15:29;;;;;;;4.50;4.03;;;19.20;99.90;;;;;;4976259;28;20530;-82
2023/08/29 02:17:57;;;;;;;7.20;3.53;;;19.20;99.90;;;;;;4975889;28;20463;-83
2023/08/29 02:20:25;;;;;;;4.30;3.10;;;19.20;99.90;;;;;;4976556;28;20463;-82
2023/08/29 02:22:52;;;;;;;3.17;2.97;;;19.10;99.90;;;;;;4975684;28;22603;-82
2023/08/29 02:25:19;;;;;;;4.20;3.20;;;19.10;99.90;;;;;;4976030;28;20502;-84
2023/08/29 02:27:46;;;;;;;3.53;2.70;;;19.00;99.90;;;;;;4975659;28;20506;-82
2023/08/29 02:30:13;;;;;;;4.13;3.07;;;19.00;99.90;;;;;;4976352;28;21027;-82
2023/08/29 02:32:45;;;;;;;2.80;2.53;;;19.00;99.90;;;;;;4975658;28;20976;-82
2023/08/29 02:35:13;;;;;;;3.53;3.23;;;18.90;99.90;;;;;;4975866;28;20554;-83
2023/08/29 02:37:40;;;;;;;2.50;2.30;;;18.90;99.90;;;;;;4975216;28;20475;-83
2023/08/29 02:40:09;;;;;;;3.53;3.23;;;18.90;99.90;;;;;;4976383;28;20471;-84
2023/08/29 02:42:36;;;;;;;3.17;2.60;;;18.90;99.90;;;;;;4975619;28;20470;-83
2023/08/29 02:45:04;;;;;;;3.27;3.07;;;18.90;99.90;;;;;;4975071;28;20471;-82
2023/08/29 02:47:31;;;;;;;2.77;2.57;;;18.90;99.90;;;;;;4975618;28;20498;-82
2023/08/29 02:49:58;;;;;;;2.43;2.23;;;18.80;99.90;;;;;;4965405;28;21036;-84
2023/08/29 02:52:26;;;;;;;3.07;2.87;;;18.80;99.90;;;;;;4975695;28;20541;-82
2023/08/29 02:54:53;;;;;;;2.93;2.73;;;18.80;99.90;;;;;;4975224;28;20533;-83
2023/08/29 02:57:20;;;;;;;3.60;3.30;;;18.80;99.90;;;;;;4975649;28;20983;-84
2023/08/29 02:59:47;;;;;;;3.17;2.87;;;18.80;99.90;;;;;;4965141;28;20491;-84
2023/08/29 03:02:14;;;;;;;3.50;2.73;;;18.80;99.90;;;;;;4975390;28;20960;-82
2023/08/29 03:04:42;;;;;;;3.40;3.20;;;18.80;99.90;;;;;;4974826;28;20483;-84
2023/08/29 03:07:09;;;;;;;2.80;2.60;;;18.80;99.90;;;;;;4975429;28;20466;-83
2023/08/29 03:09:51;;;;;;;2.57;2.37;;;18.80;99.90;;;;;;4975240;28;20475;-83
2023/08/29 03:15:40;;;;;;;3.13;2.93;;;18.80;99.90;;;;;;4943800;28;20821;-83
2023/08/29 03:18:08;;;;;;;3.63;2.40;;;18.80;99.90;;;;;;4969980;28;20475;-82
2023/08/29 03:20:40;;;;;;;3.60;2.40;;;18.80;99.90;;;;;;4964869;28;20933;-84
2023/08/29 03:23:07;;;;;;;4.20;2.80;;;18.70;99.90;;;;;;4975223;28;20801;-84
2023/08/29 03:25:36;;;;;;;2.67;2.07;;;18.70;99.90;;;;;;4974497;28;20747;-85
2023/08/29 03:28:03;;;;;;;2.43;2.10;;;18.70;99.90;;;;;;4975064;28;20566;-84
2023/08/29 03:30:31;;;;;;;2.87;2.67;;;18.70;99.90;;;;;;4974391;28;20471;-83
2023/08/29 03:32:58;;;;;;;2.33;2.13;;;18.70;99.90;;;;;;4974518;28;20474;-81
2023/08/29 03:35:24;;;;;;;3.07;2.87;;;18.70;99.90;;;;;;4974375;28;20482;-83
2023/08/29 03:37:52;;;;;;;3.33;2.63;;;18.70;99.90;;;;;;4974905;28;20806;-85
2023/08/29 03:40:19;;;;;;;2.03;1.93;;;18.70;99.90;;;;;;4974419;28;20821;-84
2023/08/29 03:42:47;;;;;;;2.67;2.47;;;18.60;99.90;;;;;;4974850;28;20474;-84
2023/08/29 03:45:14;;;;;;;2.83;2.00;;;18.60;99.90;;;;;;4974182;28;20482;-84
2023/08/29 03:47:42;;;;;;;2.50;2.00;;;18.60;99.90;;;;;;4974935;28;20463;-83
2023/08/29 03:50:09;;;;;;;2.17;2.07;;;18.60;99.90;;;;;;4974942;28;20479;-83
2023/08/29 03:52:36;;;;;;;3.73;2.20;;;18.50;99.90;;;;;;4974348;28;20517;-84
2023/08/29 03:55:03;;;;;;;4.50;2.23;;;18.60;99.90;;;;;;4974906;28;20471;-84
2023/08/29 03:57:30;;;;;;;2.47;2.27;;;18.60;99.90;;;;;;4973994;28;20475;-84
2023/08/29 03:59:58;;;;;;;2.13;1.93;;;18.50;99.90;;;;;;4974843;28;20844;-82
2023/08/29 04:02:27;;;;;;;2.30;2.10;;;18.50;99.90;;;;;;4974407;28;20554;-84
2023/08/29 04:04:54;;;;;;;3.00;2.80;;;18.40;99.90;;;;;;4974521;28;20499;-81
2023/08/29 04:07:21;;;;;;;2.50;2.20;;;18.40;99.90;;;;;;4974203;28;20466;-81
2023/08/29 04:09:48;;;;;;;2.70;2.00;;;18.40;99.90;;;;;;4974766;28;20493;-81
2023/08/29 04:12:15;;;;;;;3.33;1.93;;;18.40;99.90;;;;;;4974671;28;20545;-84
2023/08/29 04:14:45;;;;;;;3.60;2.20;;;18.40;99.90;;;;;;4974341;28;20467;-84
2023/08/29 04:17:13;;;;;;;3.10;2.10;;;18.40;99.90;;;;;;4974939;28;21046;-84
2023/08/29 04:19:40;;;;;;;2.30;2.03;;;18.30;99.90;;;;;;4974552;28;20455;-85
2023/08/29 04:22:07;;;;;;;2.20;1.80;;;18.30;99.90;;;;;;4978602;28;20473;-82
2023/08/29 04:24:34;;;;;;;2.23;2.13;;;18.30;99.90;;;;;;4978278;28;20553;-82
2023/08/29 04:27:02;;;;;;;5.10;2.77;;;18.30;99.90;;;;;;4978764;28;20493;-84
2023/08/29 04:29:29;;;;;;;2.70;2.50;;;18.30;99.90;;;;;;4977948;28;20477;-83
2023/08/29 04:31:58;;;;;;;2.93;2.50;;;18.20;99.90;;;;;;4979114;28;20473;-82
2023/08/29 04:34:27;;;;;;;2.43;2.33;;;18.20;99.90;;;;;;4977870;28;20479;-81
2023/08/29 04:36:55;;;;;;;3.70;2.17;;;18.20;99.90;;;;;;4968496;28;21003;-84
2023/08/29 04:39:22;;;;;;;3.23;1.93;;;18.20;99.90;;;;;;4979196;28;20486;-84
2023/08/29 04:41:53;;;;;;;2.10;1.90;;;18.20;99.90;;;;;;4978465;28;20459;-82
2023/08/29 04:44:20;;;;;;;2.27;2.00;;;18.20;99.90;;;;;;4977120;28;20478;-81
2023/08/29 04:46:47;;;;;;;2.17;2.07;;;18.10;99.90;;;;;;4978211;28;20537;-82
2023/08/29 04:49:14;;;;;;;2.63;2.43;;;18.10;99.90;;;;;;4978897;28;21026;-82
2023/08/29 04:51:43;;;;;;;2.77;2.57;;;18.10;99.90;;;;;;4978593;28;20615;-81
2023/08/29 04:54:10;;;;;;;5.23;2.37;;;18.10;99.90;;;;;;4978631;28;20475;-83
2023/08/29 04:56:37;;;;;;;3.63;3.03;;;18.10;99.90;;;;;;4977964;28;20534;-84
2023/08/29 04:59:04;;;;;;;2.40;2.30;;;18.10;99.90;;;;;;4978785;28;20952;-84
2023/08/29 05:01:31;;;;;;;2.70;2.50;;;18.10;99.90;;;;;;4977892;28;20470;-83
2023/08/29 05:03:58;;;;;;;3.00;2.80;;;18.10;99.90;;;;;;4978481;28;20454;-84
2023/08/29 05:06:26;;;;;;;2.70;2.50;;;18.10;99.90;;;;;;4977910;28;20471;-82
2023/08/29 05:08:54;;;;;;;2.47;2.30;;;18.10;99.90;;;;;;4978396;28;20869;-82
2023/08/29 05:11:21;;;;;;;2.60;2.40;;;18.10;99.90;;;;;;4977211;28;20484;-82
2023/08/29 05:13:48;;;;;;;2.47;2.33;;;18.20;99.90;;;;;;4968886;28;20539;-81
2023/08/29 05:16:15;;;;;;;3.00;2.30;;;18.20;99.90;;;;;;4977098;28;20497;-83
2023/08/29 05:18:42;;;;;;;2.57;2.37;;;18.20;99.90;;;;;;4977175;28;20470;-83
2023/08/29 05:21:16;;;;;;;2.40;1.93;;;18.30;99.90;;;;;;4977755;28;20553;-81
2023/08/29 05:23:43;;;;;;;2.80;2.60;;;18.30;99.90;;;;;;4966939;28;20458;-82
2023/08/29 05:26:11;;;;;;;4.50;2.37;;;18.20;99.90;;;;;;4976447;28;20560;-82
2023/08/29 05:28:39;;;;;;;2.63;2.40;;;18.30;99.90;;;;;;4977163;28;20481;-82
2023/08/29 05:31:06;;;;;;;2.40;2.23;;;18.30;99.90;;;;;;4976576;28;20477;-83
2023/08/29 05:33:33;;;;;;;2.73;2.53;;;18.30;99.90;;;;;;4977309;28;20463;-82
2023/08/29 05:36:00;;;;;;;2.87;2.40;;;18.30;99.90;;;;;;4976158;28;20478;-82
2023/08/29 05:38:27;;;;;;;3.73;2.43;;;18.30;99.90;;;;;;4976935;28;20562;-84
2023/08/29 05:40:56;;;;;;;5.20;2.93;;;18.30;99.90;;;;;;4976690;28;20475;-84
2023/08/29 05:43:25;;;;;;;2.80;2.47;;;18.30;99.90;;;;;;4976604;28;20537;-81
2023/08/29 05:45:55;;;;;;;2.63;2.43;;;18.30;99.90;;;;;;4976591;28;20489;-83
2023/08/29 05:48:22;;;;;;;3.10;2.47;;;18.30;99.90;;;;;;4975887;28;20471;-83
2023/08/29 05:50:50;;;;;;;4.60;3.37;;;18.40;99.90;;;;;;4975980;28;20474;-81
2023/08/29 05:53:20;;;;;;;7.33;4.57;;;18.40;99.90;;;;;;4976810;28;20957;-82
2023/08/29 05:55:47;;;;;;;3.30;3.10;;;18.40;99.90;;;;;;4963122;28;20471;-82
2023/08/29 05:58:14;;;;;;;4.77;3.50;;;18.40;99.90;;;;;;4976947;28;20475;-82
2023/08/29 06:00:42;;;;;;;8.27;3.73;;;18.40;99.90;;;;;;4976289;28;20514;-83
2023/08/29 06:03:10;;;;;;;3.00;2.80;;;18.40;99.90;;;;;;4976862;28;20579;-83
2023/08/29 06:05:41;;;;;;;2.80;2.60;;;18.40;99.90;;;;;;4976377;28;20494;-83
2023/08/29 06:08:08;;;;;;;4.57;4.17;;;18.30;99.90;;;;;;4975468;28;20469;-82
2023/08/29 06:10:36;;;;;;;7.70;3.47;;;18.30;99.90;;;;;;4976660;28;20494;-82
2023/08/29 06:13:03;;;;;;;3.73;3.00;;;18.40;99.90;;;;;;4975975;28;20477;-82
2023/08/29 06:15:31;;;;;;;3.43;2.80;;;18.40;99.90;;;;;;4976346;28;20489;-82
2023/08/29 06:18:00;;;;;;;2.93;2.73;;;18.30;99.90;;;;;;4975544;28;20481;-82
2023/08/29 06:20:55;;;;;;;6.00;2.93;;;18.30;99.90;;;;;;4976260;28;20470;-82
2023/08/29 06:23:30;;;;;;;4.10;3.80;;;18.30;99.90;;;;;;4966702;28;20463;-83
2023/08/29 06:25:57;;;;;;;5.10;3.73;;;18.30;99.90;;;;;;4974091;28;20466;-82
2023/08/29 06:28:26;;;;;;;3.60;3.30;;;18.30;99.90;;;;;;4975148;28;20981;-82
2023/08/29 06:30:53;;;;;;;3.80;3.03;;;18.30;99.90;;;;;;4964922;28;20473;-82
2023/08/29 06:33:24;;;;;;;3.53;3.23;;;18.30;99.90;;;;;;4963987;28;20802;-82
2023/08/29 06:35:51;;;;;;;4.57;3.83;;;18.40;99.90;;;;;;4974284;28;20467;-84
2023/08/29 06:38:27;;;;;;;4.00;3.60;;;18.40;99.90;;;;;;4965683;28;20474;-84
2023/08/29 06:40:55;;;;;;;3.10;2.90;;;18.50;99.90;;;;;;4975349;28;20478;-84
2023/08/29 06:43:22;;;;;;;3.70;3.40;;;18.50;99.90;;;;;;4975215;28;21040;-84
2023/08/29 06:45:49;;;;;;;3.27;2.97;;;18.50;99.90;;;;;;4975173;28;20482;-82
2023/08/29 06:48:17;;;;;;;5.40;2.90;;;18.50;99.90;;;;;;4976744;28;20541;-82
2023/08/29 06:50:46;;;;;;;4.83;4.23;;;18.40;99.90;;;;;;4976881;28;20479;-84
2023/08/29 06:53:13;;;;;;;5.77;5.27;;;18.50;99.90;;;;;;4979237;28;20470;-82
2023/08/29 06:55:43;;;;;;;4.70;3.93;;;18.40;99.90;;;;;;4975916;28;20474;-82
2023/08/29 06:58:10;;;;;;;3.53;3.33;;;18.40;99.90;;;;;;4975426;28;20466;-85
2023/08/29 07:00:37;;;;;;;4.30;3.90;;;18.50;99.90;;;;;;4976456;28;20875;-82
2023/08/29 07:03:04;;;;;;;3.50;3.20;;;18.50;99.90;;;;;;4964935;28;20483;-83
2023/08/29 07:05:31;;;;;;;5.00;3.90;;;18.50;99.90;;;;;;4975380;28;20546;-81
2023/08/29 07:07:59;;;;;;;7.57;3.90;;;18.50;99.90;;;;;;4977306;28;20467;-83
2023/08/29 07:10:27;;;;;;;3.70;3.40;;;18.50;99.90;;;;;;4976578;28;20561;-84
2023/08/29 07:12:54;;;;;;;5.90;4.83;;;18.50;99.90;;;;;;4977471;28;20486;-85
2023/08/29 07:15:21;;;;;;;4.53;3.83;;;18.50;99.90;;;;;;4978874;28;20462;-81
2023/08/29 07:17:48;;;;;;;3.60;3.40;;;18.60;99.90;;;;;;4977077;28;20466;-81
2023/08/29 07:20:16;;;;;;;3.97;3.67;;;18.50;99.90;;;;;;4976404;28;20796;-81
2023/08/29 07:22:46;;;;;;;4.60;4.20;;;18.50;99.90;;;;;;4976644;28;20557;-81
2023/08/29 07:25:15;;;;;;;4.30;4.00;;;18.50;99.90;;;;;;4965795;28;20518;-84
2023/08/29 07:27:42;;;;;;;4.80;4.40;;;18.50;99.90;;;;;;4978401;28;20969;-83
2023/08/29 07:30:14;;;;;;;4.47;4.07;;;18.50;99.90;;;;;;4977498;28;20972;-81
2023/08/29 07:32:44;;;;;;;4.80;4.30;;;18.50;99.90;;;;;;4977344;28;20494;-81
2023/08/29 07:35:11;;;;;;;5.60;5.10;;;18.50;99.90;;;;;;4976083;28;20479;-84
2023/08/29 07:37:38;;;;;;;5.27;4.87;;;18.50;99.90;;;;;;4976488;28;20557;-81
2023/08/29 07:40:08;;;;;;;4.60;4.23;;;18.50;99.90;;;;;;4976432;28;20475;-81
2023/08/29 07:42:37;;;;;;;7.50;6.00;;;18.60;99.90;;;;;;4978414;28;20817;-84
2023/08/29 07:45:04;;;;;;;5.87;5.37;;;18.50;99.90;;;;;;4976504;28;20535;-81
2023/08/29 07:47:31;;;;;;;4.97;4.47;;;18.50;99.90;;;;;;4978777;28;20494;-85
2023/08/29 07:49:58;;;;;;;5.93;5.43;;;18.50;99.90;;;;;;4975280;28;20474;-81
2023/08/29 07:52:26;;;;;;;12.10;7.83;;;18.50;99.90;;;;;;4974776;28;20463;-81
2023/08/29 07:54:53;;;;;;;10.13;8.30;;;18.50;99.90;;;;;;4974081;28;20481;-83
2023/08/29 07:57:20;;;;;;;8.10;6.73;;;18.50;99.90;;;;;;4974544;28;20470;-81
2023/08/29 07:59:48;;;;;;;6.07;5.60;;;18.50;99.90;;;;;;4974943;28;20474;-82
2023/08/29 08:02:15;;;;;;;8.07;6.00;;;18.50;99.90;;;;;;4974305;28;20466;-81
2023/08/29 08:04:42;;;;;;;8.47;6.40;;;18.50;99.90;;;;;;4974472;28;20483;-81
2023/08/29 08:07:09;;;;;;;6.87;6.23;;;18.40;99.90;;;;;;4973945;28;20471;-82
2023/08/29 08:09:35;;;;;;;8.37;6.50;;;18.40;99.90;;;;;;4975014;28;20466;-81
2023/08/29 08:12:03;;;;;;;6.67;6.07;;;18.40;99.90;;;;;;4974829;28;20619;-81
2023/08/29 08:14:39;;;;;;;6.50;5.90;;;18.40;99.90;;;;;;4973434;28;20577;-84
2023/08/29 08:17:07;;;;;;;6.40;5.90;;;18.40;99.90;;;;;;4972979;28;20563;-83
2023/08/29 08:19:34;;;;;;;6.07;5.57;;;18.40;99.90;;;;;;4974570;28;20475;-85
2023/08/29 08:22:03;;;;;;;6.30;5.80;;;18.40;99.90;;;;;;4974311;28;20479;-84
2023/08/29 08:24:30;;;;;;;6.37;5.83;;;18.40;99.90;;;;;;4973855;28;20470;-84
2023/08/29 08:26:57;;;;;;;6.47;5.70;;;18.40;99.90;;;;;;4974566;28;20534;-85
2023/08/29 08:29:24;;;;;;;6.73;6.13;;;18.50;99.90;;;;;;4973952;28;20861;-84
2023/08/29 08:31:53;;;;;;;6.93;6.20;;;18.40;99.90;;;;;;4974655;28;20525;-82
2023/08/29 08:34:22;;;;;;;6.23;5.80;;;18.40;99.90;;;;;;4973260;28;20545;-85
2023/08/29 08:36:49;;;;;;;6.60;5.73;;;18.50;99.90;;;;;;4974286;28;20502;-85
2023/08/29 08:39:16;;;;;;;6.67;5.57;;;18.50;99.90;;;;;;4973968;28;20532;-82
2023/08/29 08:41:43;;;;;;;7.27;6.63;;;18.50;99.90;;;;;;4973915;28;20462;-82
2023/08/29 08:44:15;;;;;;;7.13;6.47;;;18.40;99.90;;;;;;4973865;28;20478;-85
2023/08/29 08:46:43;;;;;;;7.43;6.73;;;18.40;99.90;;;;;;4974549;28;20471;-84
2023/08/29 08:49:11;;;;;;;9.40;6.63;;;18.50;99.90;;;;;;4973720;28;20482;-84
2023/08/29 08:51:41;;;;;;;6.13;5.30;;;18.50;99.90;;;;;;4973967;28;20470;-85
2023/08/29 08:54:08;;;;;;;7.13;6.43;;;18.60;99.90;;;;;;4974685;28;20475;-85
2023/08/29 08:56:36;;;;;;;6.50;5.90;;;18.60;99.90;;;;;;4962850;28;20545;-82
2023/08/29 08:59:06;;;;;;;5.83;5.43;;;18.60;99.90;;;;;;4973182;28;20856;-84
2023/08/29 09:01:34;;;;;;;6.40;5.80;;;18.60;99.90;;;;;;4973915;28;20538;-83
2023/08/29 09:04:02;;;;;;;6.20;5.60;;;18.60;99.90;;;;;;4974442;28;20471;-82
2023/08/29 09:06:31;;;;;;;6.90;5.97;;;18.70;99.90;;;;;;4974664;28;20549;-81
2023/08/29 09:09:15;;;;;;;6.63;5.57;;;18.70;99.90;;;;;;4977701;28;20482;-84
2023/08/29 09:11:43;;;;;;;6.77;6.10;;;18.80;99.90;;;;;;4977276;28;20489;-84
2023/08/29 09:14:13;;;;;;;7.53;6.07;;;18.80;99.90;;;;;;4977310;28;20483;-82
2023/08/29 09:16:40;;;;;;;7.83;4.80;;;18.90;99.90;;;;;;4967934;28;20483;-82
2023/08/29 09:19:08;;;;;;;5.13;4.73;;;18.90;99.90;;;;;;4977403;28;20508;-82
2023/08/29 09:21:36;;;;;;;5.40;5.00;;;18.90;99.90;;;;;;4976796;28;20486;-82
2023/08/29 09:24:08;;;;;;;4.67;4.30;;;19.00;99.90;;;;;;4976976;28;20505;-85
2023/08/29 09:26:37;;;;;;;4.30;4.00;;;19.00;99.90;;;;;;4976649;28;20475;-85
2023/08/29 09:29:18;;;;;;;4.00;3.70;;;19.00;99.90;;;;;;4965331;28;20569;-85
2023/08/29 09:31:46;;;;;;;4.30;4.00;;;19.10;99.90;;;;;;4975884;28;20489;-84
2023/08/29 09:34:33;;;;;;;4.40;4.00;;;19.10;99.90;;;;;;4977037;28;20524;-82
2023/08/29 09:37:04;;;;;;;5.23;4.73;;;19.20;99.90;;;;;;4976013;28;20501;-84
2023/08/29 09:39:32;;;;;;;4.63;4.33;;;19.30;99.90;;;;;;4967113;28;21024;-82
2023/08/29 09:42:01;;;;;;;4.83;4.43;;;19.20;99.90;;;;;;4976197;28;20471;-85
2023/08/29 09:44:29;;;;;;;4.77;4.47;;;19.40;99.90;;;;;;4976184;28;20479;-84
2023/08/29 09:46:57;;;;;;;5.47;4.97;;;19.40;99.90;;;;;;4977474;28;20525;-84
2023/08/29 09:49:27;;;;;;;4.43;4.13;;;19.40;99.90;;;;;;4976233;28;20471;-84
2023/08/29 09:52:00;;;;;;;5.50;5.03;;;19.40;99.90;;;;;;4978723;28;20541;-84
2023/08/29 09:54:31;;;;;;;5.37;4.97;;;19.50;99.90;;;;;;4977985;28;20483;-83
2023/08/29 09:57:05;;;;;;;4.87;4.57;;;19.50;99.90;;;;;;4980209;28;20542;-82
2023/08/29 09:59:36;;;;;;;5.03;4.73;;;19.50;99.90;;;;;;4978792;28;20474;-85
2023/08/29 10:02:04;;;;;;;6.27;5.60;;;19.50;99.90;;;;;;4988086;28;20965;-82
2023/08/29 10:04:33;;;;;;;7.03;5.20;;;19.50;99.90;;;;;;4976626;28;20475;-82
2023/08/29 10:07:02;;;;;;;6.27;5.77;;;19.50;99.90;;;;;;4977021;28;20812;-84
2023/08/29 10:09:31;;;;;;;5.07;4.77;;;19.50;99.90;;;;;;4976528;28;20849;-82
2023/08/29 10:12:00;;;;;;;5.03;4.50;;;19.60;99.90;;;;;;4977014;28;20853;-82
2023/08/29 10:14:28;;;;;;;4.70;4.37;;;19.60;99.90;;;;;;4965888;28;20487;-82
2023/08/29 10:16:59;;;;;;;5.10;4.80;;;19.50;99.90;;;;;;4976038;28;20546;-82
2023/08/29 10:19:29;;;;;;;3.20;3.00;;;19.50;99.90;;;;;;4974998;28;20481;-84
2023/08/29 10:21:57;;;;;;;4.70;4.30;;;19.60;99.90;;;;;;4976149;28;20529;-81
2023/08/29 10:24:25;;;;;;;4.87;4.33;;;19.60;99.90;;;;;;4976254;28;20479;-86
2023/08/29 10:26:56;;;;;;;4.67;4.37;;;19.50;99.90;;;;;;4976036;28;20780;-85
2023/08/29 10:29:24;;;;;;;4.87;4.47;;;19.60;99.90;;;;;;4976217;28;20470;-85
2023/08/29 10:31:52;;;;;;;4.50;4.13;;;19.60;99.90;;;;;;4975727;28;20463;-85
2023/08/29 10:34:20;;;;;;;4.27;4.07;;;19.60;99.90;;;;;;4976035;28;20537;-84
2023/08/29 10:36:51;;;;;;;4.60;4.20;;;19.60;99.90;;;;;;4975891;28;20470;-82
2023/08/29 10:39:20;;;;;;;4.83;4.30;;;19.60;99.90;;;;;;4976141;28;20479;-84
2023/08/29 10:41:50;;;;;;;4.50;4.20;;;19.60;99.90;;;;;;4975519;28;20470;-84
2023/08/29 10:44:40;;;;;;;4.87;4.47;;;19.60;99.90;;;;;;4975983;28;20562;-84
2023/08/29 10:47:19;;;;;;;5.90;5.40;;;19.60;99.90;;;;;;4976362;28;20877;-82
2023/08/29 10:49:50;;;;;;;4.40;4.10;;;19.60;99.90;;;;;;4976216;28;20485;-83
2023/08/29 10:52:21;;;;;;;4.97;4.60;;;19.60;99.90;;;;;;4975644;28;20918;-82
2023/08/29 10:55:02;;;;;;;5.47;5.10;;;19.60;99.90;;;;;;4975500;28;20481;-82
2023/08/29 10:57:30;;;;;;;8.07;5.43;;;19.60;99.90;;;;;;4975974;28;20498;-82
2023/08/29 11:00:04;;;;;;;5.93;5.43;;;19.60;99.90;;;;;;4975245;28;20841;-82
2023/08/29 11:02:31;;;;;;;10.90;9.90;;;19.60;99.90;;;;;;4975486;28;20466;-82
2023/08/29 11:05:12;;;;;;;10.20;9.30;;;19.60;99.90;;;;;;4975110;28;20474;-82
2023/08/29 11:07:40;;;;;;;5.80;5.30;;;19.80;99.90;;;;;;4975206;28;21065;-84
2023/08/29 11:10:21;;;;;;;5.23;4.93;;;19.90;99.90;;;;;;4965005;28;20507;-84
2023/08/29 11:13:09;;;;;;;6.00;5.40;;;19.90;99.90;;;;;;4964496;28;20525;-84
2023/08/29 11:16:08;;;;;;;6.93;6.33;;;19.90;99.90;;;;;;4974967;28;20489;-82
2023/08/29 11:18:36;;;;;;;7.10;6.40;;;19.90;99.90;;;;;;4975428;28;20467;-85
2023/08/29 11:21:08;;;;;;;7.37;6.70;;;19.90;99.90;;;;;;4975281;28;20865;-85
2023/08/29 11:23:41;;;;;;;6.83;5.73;;;19.90;99.90;;;;;;4974704;28;20467;-84
2023/08/29 11:26:14;;;;;;;5.63;5.23;;;19.90;99.90;;;;;;4975126;28;20537;-85
2023/08/29 11:28:42;;;;;;;5.53;5.13;;;19.90;99.90;;;;;;4974708;28;20648;-85
2023/08/29 11:31:12;;;;;;;6.47;5.97;;;19.90;99.90;;;;;;4974860;28;20475;-82
2023/08/29 11:33:39;;;;;;;5.97;5.47;;;20.00;99.90;;;;;;4974684;28;20466;-83
2023/08/29 11:36:09;;;;;;;5.57;5.20;;;20.00;99.90;;;;;;4975187;28;20961;-85
2023/08/29 11:38:37;;;;;;;6.50;6.00;;;20.00;99.90;;;;;;4974252;28;20872;-84
2023/08/29 11:41:06;;;;;;;7.40;6.20;;;20.10;99.90;;;;;;4974997;28;20544;-84
2023/08/29 11:43:33;;;;;;;8.20;7.60;;;20.20;99.90;;;;;;4974379;28;20482;-82
2023/08/29 11:46:03;;;;;;;7.50;7.00;;;20.20;99.90;;;;;;4974564;28;20483;-82
2023/08/29 11:48:33;;;;;;;7.73;7.03;;;20.30;99.90;;;;;;4973975;28;20467;-82
2023/08/29 11:51:04;;;;;;;7.33;6.73;;;20.40;99.90;;;;;;4974171;28;20525;-85
2023/08/29 11:53:34;;;;;;;7.60;7.00;;;20.40;99.90;;;;;;4973797;28;20471;-85
2023/08/29 11:56:02;;;;;;;7.93;7.23;;;20.40;99.90;;;;;;4974623;28;20537;-82
2023/08/29 11:58:30;;;;;;;6.97;6.47;;;20.50;99.90;;;;;;4970771;28;20975;-84
2023/08/29 12:00:58;;;;;;;7.33;6.70;;;20.50;99.90;;;;;;4975039;28;20466;-85
2023/08/29 12:03:26;;;;;;;6.97;6.50;;;20.50;99.90;;;;;;4974275;28;20960;-83
2023/08/29 12:05:58;;;;;;;6.70;6.13;;;20.60;99.90;;;;;;4974839;28;20485;-85
2023/08/29 12:08:36;;;;;;;6.53;6.13;;;20.60;99.90;;;;;;4974564;28;20475;-82
2023/08/29 12:11:05;;;;;;;7.63;7.00;;;20.60;99.90;;;;;;4975782;28;20486;-83
2023/08/29 12:13:32;;;;;;;8.10;7.27;;;20.60;99.90;;;;;;4974212;28;20458;-83
2023/08/29 12:15:59;;;;;;;7.23;6.73;;;20.60;99.90;;;;;;4976015;28;20474;-83
2023/08/29 12:18:27;;;;;;;7.20;6.70;;;20.60;99.90;;;;;;4974186;28;20471;-86
2023/08/29 12:21:08;;;;;;;7.17;6.60;;;20.50;99.90;;;;;;4975035;28;20466;-83
2023/08/29 12:23:37;;;;;;;8.57;7.77;;;20.50;99.90;;;;;;4974042;28;20532;-82
2023/08/29 12:26:05;;;;;;;6.47;6.00;;;20.50;99.90;;;;;;4974496;28;20485;-85
2023/08/29 12:28:32;;;;;;;6.63;6.13;;;20.60;99.90;;;;;;4973767;28;20478;-84
2023/08/29 12:31:01;;;;;;;6.03;5.53;;;20.60;99.90;;;;;;4974674;28;20463;-84
2023/08/29 12:33:28;;;;;;;6.20;5.30;;;20.60;99.90;;;;;;4973809;28;20506;-84
2023/08/29 12:35:55;;;;;;;7.33;6.63;;;20.50;99.90;;;;;;4974723;28;20822;-82
2023/08/29 12:38:23;;;;;;;6.33;5.80;;;20.60;99.90;;;;;;4973791;28;20533;-83
2023/08/29 12:40:51;;;;;;;6.23;5.73;;;20.60;99.90;;;;;;4974301;28;20475;-84
2023/08/29 12:43:19;;;;;;;6.27;5.80;;;20.70;99.90;;;;;;4977291;28;20477;-84
2023/08/29 12:45:49;;;;;;;6.40;5.90;;;20.60;99.90;;;;;;4978338;28;20497;-82
2023/08/29 12:48:20;;;;;;;5.60;5.20;;;20.70;99.90;;;;;;4977373;28;20566;-83
2023/08/29 12:50:48;;;;;;;6.13;5.63;;;20.60;99.90;;;;;;4978516;28;20845;-84
2023/08/29 12:53:18;;;;;;;6.47;5.90;;;20.60;99.90;;;;;;4977899;28;20539;-83
2023/08/29 12:55:47;;;;;;;6.00;5.60;;;20.60;99.90;;;;;;4978230;28;20525;-85
2023/08/29 12:58:15;;;;;;;6.73;6.33;;;20.60;99.90;;;;;;4978003;28;20493;-83